Malo, Washington
Current Conditions -  °F | °C
As of 2:20 PM on Sunday 25 Jan 2015 (Local Time) from KOMK Reporting Station
Haze Haze  
Wind Chill: 38°   Ceiling: 1000
Heat Index: 38°   Visibility: 4mi
Dew Point: 36°   Wind: 3mph
Humidity: 93%   Direction: 210°SSW
Pressure: 30.21"   Gusts: NA
Location:  48.8°N, 118.61°W
Report Text: KOMK 252220Z AUTO 21003KT 4SM BR FEW005 OVC010 03/02 A3021 RMK AO2 T00330022
Loading
Personal Weather Stations






























Interactive Weather Map New forecast layout! Learn more

10-Day Weather Forecast

Advertisements
Track Severe Weather on mobile